PDT,Max TemperatureF,Mean TemperatureF,Min TemperatureF,Max Dew PointF,MeanDew PointF,Min DewpointF,Max Humidity, Mean Humidity, Min Humidity, Max Sea Level PressureIn, Mean Sea Level PressureIn, Min Sea Level PressureIn, Max VisibilityMiles, Mean VisibilityMiles, Min VisibilityMiles, Max Wind SpeedMPH, Mean Wind SpeedMPH, Max Gust SpeedMPH,PrecipitationIn, CloudCover, Events, WindDirDegrees
2011-9-1,86,65,43,25,14,2,30,18,6,30.16,29.79,29.69,10,10,10,20,10,26,0.00,0,,202
2011-9-2,86,61,36,28,22,16,52,31,10,30.02,29.94,29.88,10,10,10,14,6,20,0.00,0,,97
2011-9-3,86,62,37,23,20,18,48,28,8,30.02,29.95,29.87,10,10,10,15,7,21,0.00,0,,148
2011-9-4,88,63,38,26,22,18,44,27,10,30.25,29.94,29.85,10,10,10,20,7,24,0.00,0,,179
2011-9-5,71,60,48,46,39,25,66,45,23,30.24,29.96,29.81,10,10,10,26,10,35,T,5,Thunderstorm,168
2011-9-6,82,61,40,44,34,22,89,52,14,30.26,30.08,30.00,10,10,10,20,9,26,0.00,0,,89
2011-9-7,85,62,39,34,27,19,64,37,10,30.21,30.13,30.07,10,10,10,15,7,20,0.00,0,,182
2011-9-8,82,62,41,37,30,27,58,37,15,30.17,30.10,30.04,10,10,10,24,7,29,T,1,Rain,163
2011-9-9,82,60,38,37,32,28,70,43,16,30.28,30.00,29.87,10,10,10,21,9,30,0.00,1,Thunderstorm,184
2011-9-10,75,58,41,49,40,32,80,53,25,30.17,30.00,29.91,10,9,2,22,8,30,0.23,3,Rain-Thunderstorm,171
2011-9-11,72,57,42,50,41,37,82,60,37,30.26,30.10,29.96,10,10,5,26,10,36,0.06,3,Rain-Thunderstorm,190
2011-9-12,72,57,42,43,39,34,83,55,26,30.16,30.10,30.05,10,10,10,15,7,20,0.01,4,Rain,176
2011-9-13,75,57,38,42,37,33,79,53,26,30.19,30.08,29.96,10,10,10,23,8,28,0.00,3,,180
2011-9-14,74,60,46,43,40,36,76,52,27,30.07,29.93,29.81,10,10,10,18,7,24,T,2,Thunderstorm,185
2011-9-15,77,58,39,43,38,34,92,58,23,30.06,29.87,29.78,10,10,10,23,10,29,T,1,Thunderstorm,187
2011-9-16,63,56,48,50,46,39,89,70,51,30.18,29.95,29.76,10,8,2,28,5,32,1.03,7,Rain-Thunderstorm,223
2011-9-17,71,56,41,48,43,36,96,62,28,30.07,30.00,29.94,10,10,10,16,7,18,0.00,1,,198
2011-9-18,77,58,39,41,37,30,92,56,19,30.20,30.13,30.08,10,10,10,13,6,16,0.00,0,,194
2011-9-19,83,61,39,41,35,26,86,50,14,30.24,30.08,29.97,10,10,10,14,8,24,0.00,0,,193
2011-9-20,82,61,39,38,31,24,79,46,13,30.28,30.01,29.94,10,10,10,16,8,22,0.00,0,,179
2011-9-21,82,60,37,35,29,21,76,44,11,30.20,30.04,29.97,10,10,10,15,8,18,0.00,0,,148
2011-9-22,85,62,39,32,28,17,70,39,8,30.17,30.09,30.03,10,10,10,14,7,20,0.00,0,,162
2011-9-23,86,63,40,34,28,20,65,37,9,30.26,30.12,30.03,10,10,10,14,6,16,0.00,0,,164
2011-9-24,83,62,40,31,26,19,60,35,10,30.11,29.96,29.87,10,10,10,16,8,22,0.00,0,,175
2011-9-25,79,60,40,37,31,25,65,39,13,29.96,29.85,29.76,10,10,10,28,11,40,0.00,1,,176
2011-9-26,80,61,41,35,33,29,70,43,15,30.04,29.95,29.83,10,10,10,12,6,14,0.00,0,,154
2011-9-27,86,63,39,36,31,27,70,42,13,30.16,30.05,29.99,10,10,10,15,7,24,0.00,0,,170
2011-9-28,86,63,40,33,29,25,62,36,10,30.17,30.05,29.97,10,10,10,14,6,17,0.00,0,,158
2011-9-29,86,63,39,34,29,27,60,36,12,30.14,30.02,29.94,10,10,10,15,8,20,0.00,0,,171
2011-9-30,84,64,43,35,31,26,57,36,14,30.22,30.01,29.90,10,10,9,39,11,54,T,2,Rain-Thunderstorm,139